Time;durP1;ratioP1;P1;durP2;ratioP2;P2;SDS_P1;SDS_P2;PMS_P1;PMS_P2;Temp;Humidity;BMP_temperature;BMP_pressure;BME280_temperature;BME280_humidity;BME280_pressure;Samples;Min_cycle;Max_cycle;Signal;HPM_P1;HPM_P2
2024/04/11 05:57:51;;;;;;;6.55;1.50;;;;;;;;;;10582730;28;20028;-85
2024/04/11 06:03:08;;;;;;;3.83;1.38;;;;;;;;;;10603619;28;20024;-82
2024/04/11 06:08:09;;;;;;;4.80;1.52;;;;;;;;;;10625767;28;20044;-85
2024/04/11 06:13:39;;;;;;;5.65;1.35;;;;;;;;;;10625454;28;20015;-84
2024/04/11 06:19:09;;;;;;;5.65;2.72;;;;;;;;;;10615341;28;20070;-84
2024/04/11 06:24:10;;;;;;;2.20;0.80;;;;;;;;;;10616362;28;20031;-85
2024/04/11 06:29:19;;;;;;;4.05;1.23;;;;;;;;;;10606300;28;20028;-85
2024/04/11 06:34:33;;;;;;;4.25;1.35;;;;;;;;;;10564976;28;20080;-84
2024/04/11 06:39:36;;;;;;;3.57;1.20;;;;;;;;;;10605623;28;20027;-84
2024/04/11 06:44:45;;;;;;;3.97;1.23;;;;;;;;;;10606745;28;20035;-83
2024/04/11 06:49:47;;;;;;;2.65;1.20;;;;;;;;;;10564964;28;20036;-85
2024/04/11 06:54:48;;;;;;;4.28;1.40;;;;;;;;;;10531619;28;20024;-85
2024/04/11 06:59:50;;;;;;;2.10;0.95;;;;;;;;;;10530796;28;20025;-84
2024/04/11 07:04:51;;;;;;;3.00;0.98;;;;;;;;;;10560350;28;20359;-83
2024/04/11 07:09:59;;;;;;;4.05;1.30;;;;;;;;;;10547454;28;20096;-82
2024/04/11 07:15:00;;;;;;;3.08;1.23;;;;;;;;;;10543071;28;20060;-81
2024/04/11 07:20:08;;;;;;;3.78;1.35;;;;;;;;;;10563016;28;20505;-83
2024/04/11 07:25:13;;;;;;;7.68;2.30;;;;;;;;;;10544418;28;20016;-83
2024/04/11 07:30:14;;;;;;;6.22;1.60;;;;;;;;;;10544012;28;20081;-83
2024/04/11 07:35:17;;;;;;;4.70;1.63;;;;;;;;;;10565892;28;20030;-82
2024/04/11 07:40:45;;;;;;;3.33;1.15;;;;;;;;;;10576962;28;20028;-83
2024/04/11 07:45:46;;;;;;;3.15;1.30;;;;;;;;;;10561066;28;20024;-83
2024/04/11 07:50:47;;;;;;;3.88;1.40;;;;;;;;;;10559340;28;20040;-84
2024/04/11 07:55:49;;;;;;;3.60;1.63;;;;;;;;;;10565899;22;20041;-79
2024/04/11 08:00:54;;;;;;;5.32;1.80;;;;;;;;;;10486163;28;20093;-77
2024/04/11 08:05:56;;;;;;;3.42;1.45;;;;;;;;;;10486826;28;20025;-77
2024/04/11 08:11:02;;;;;;;6.13;1.90;;;;;;;;;;10485580;28;20024;-79
2024/04/11 08:16:08;;;;;;;5.22;2.15;;;;;;;;;;10487946;28;20017;-77
2024/04/11 08:21:11;;;;;;;2.63;1.23;;;;;;;;;;10487331;28;20036;-77
2024/04/11 08:26:13;;;;;;;7.20;1.58;;;;;;;;;;10504835;28;20078;-78
2024/04/11 08:31:14;;;;;;;3.58;1.60;;;;;;;;;;10502337;28;20013;-77
2024/04/11 08:36:18;;;;;;;3.97;1.38;;;;;;;;;;10502128;28;20025;-77
2024/04/11 08:41:20;;;;;;;5.50;1.70;;;;;;;;;;10489131;28;20024;-77
2024/04/11 08:46:22;;;;;;;3.38;1.40;;;;;;;;;;10515546;28;20116;-78
2024/04/11 08:51:23;;;;;;;3.47;2.08;;;;;;;;;;10514888;28;20028;-77
2024/04/11 08:56:24;;;;;;;5.40;1.60;;;;;;;;;;10492769;28;20028;-77
2024/04/11 09:01:26;;;;;;;4.18;1.42;;;;;;;;;;10499786;28;20495;-79
2024/04/11 09:06:28;;;;;;;5.95;2.83;;;;;;;;;;10518429;28;20017;-77
2024/04/11 09:11:31;;;;;;;4.80;1.70;;;;;;;;;;10538463;28;20001;-77
2024/04/11 09:16:33;;;;;;;4.40;1.40;;;;;;;;;;10505975;28;20074;-78
2024/04/11 09:21:35;;;;;;;4.03;1.45;;;;;;;;;;10483994;28;20028;-77
2024/04/11 09:26:37;;;;;;;5.35;2.15;;;;;;;;;;10500742;28;20104;-78
2024/04/11 09:31:38;;;;;;;5.68;1.55;;;;;;;;;;10503651;28;20144;-80
2024/04/11 09:36:47;;;;;;;4.72;1.50;;;;;;;;;;10506208;28;20107;-79
2024/04/11 09:41:51;;;;;;;7.50;2.00;;;;;;;;;;10507486;28;20084;-78
2024/04/11 09:46:52;;;;;;;5.32;1.70;;;;;;;;;;10494680;28;20024;-77
2024/04/11 09:51:53;;;;;;;4.85;1.70;;;;;;;;;;10493060;28;20020;-77
2024/04/11 09:56:56;;;;;;;3.90;1.80;;;;;;;;;;10492913;28;20044;-78
2024/04/11 10:02:01;;;;;;;3.85;2.20;;;;;;;;;;10489609;28;20024;-78
2024/04/11 10:07:08;;;;;;;3.45;1.60;;;;;;;;;;10486216;28;20469;-80
2024/04/11 10:12:11;;;;;;;6.50;2.00;;;;;;;;;;10509217;28;20021;-78
2024/04/11 10:17:14;;;;;;;3.35;1.50;;;;;;;;;;10506796;28;20024;-79
2024/04/11 10:22:24;;;;;;;5.93;1.70;;;;;;;;;;10505987;28;20032;-78
2024/04/11 10:27:29;;;;;;;2.10;0.95;;;;;;;;;;10512970;28;20081;-78
2024/04/11 10:32:35;;;;;;;3.80;1.35;;;;;;;;;;10496575;28;20021;-79
2024/04/11 10:37:40;;;;;;;5.00;1.70;;;;;;;;;;10514358;28;20044;-77
2024/04/11 10:42:43;;;;;;;4.47;1.67;;;;;;;;;;10519980;28;20051;-77
2024/04/11 10:47:44;;;;;;;3.70;1.67;;;;;;;;;;10499792;28;20028;-78
2024/04/11 10:52:45;;;;;;;5.28;1.90;;;;;;;;;;10491219;28;20040;-78
2024/04/11 10:57:49;;;;;;;5.38;1.63;;;;;;;;;;10490029;28;20044;-78
2024/04/11 11:03:11;;;;;;;5.97;1.90;;;;;;;;;;10514590;28;20031;-77
2024/04/11 11:08:12;;;;;;;3.22;1.48;;;;;;;;;;10515151;28;20078;-79
2024/04/11 11:13:15;;;;;;;5.68;1.75;;;;;;;;;;10491970;28;20039;-78
2024/04/11 11:18:16;;;;;;;3.25;1.65;;;;;;;;;;10491191;28;20445;-78
2024/04/11 11:23:17;;;;;;;5.10;2.50;;;;;;;;;;10510781;28;20031;-78
2024/04/11 11:28:18;;;;;;;4.35;1.80;;;;;;;;;;10508149;28;20546;-77
2024/04/11 11:33:23;;;;;;;7.30;2.50;;;;;;;;;;10490981;28;20023;-77
2024/04/11 11:38:24;;;;;;;4.57;1.40;;;;;;;;;;10505275;28;20406;-79
2024/04/11 11:43:27;;;;;;;3.60;1.55;;;;;;;;;;10487116;28;20035;-77
2024/04/11 11:48:31;;;;;;;5.38;1.70;;;;;;;;;;10507051;28;20082;-77
2024/04/11 11:53:33;;;;;;;5.90;1.73;;;;;;;;;;10507464;28;20020;-77
2024/04/11 11:58:35;;;;;;;4.90;2.05;;;;;;;;;;10490625;28;20036;-77
2024/04/11 12:03:37;;;;;;;4.88;2.15;;;;;;;;;;10506347;28;20024;-78
2024/04/11 12:08:38;;;;;;;4.45;2.15;;;;;;;;;;10489972;28;20024;-77
2024/04/11 12:13:45;;;;;;;4.72;2.40;;;;;;;;;;10518508;28;20021;-78
2024/04/11 12:18:46;;;;;;;4.10;2.03;;;;;;;;;;10507674;28;20028;-77
2024/04/11 12:23:47;;;;;;;6.30;3.90;;;;;;;;;;10491285;28;20071;-77
2024/04/11 12:28:50;;;;;;;5.43;2.83;;;;;;;;;;10490539;28;20177;-77
2024/04/11 12:33:54;;;;;;;6.95;5.07;;;;;;;;;;10487960;28;20028;-77
2024/04/11 12:39:03;;;;;;;6.38;3.78;;;;;;;;;;10486542;28;20032;-77
2024/04/11 12:44:11;;;;;;;3.40;2.38;;;;;;;;;;10485876;28;20028;-78
2024/04/11 12:49:15;;;;;;;4.70;1.92;;;;;;;;;;10487650;28;20025;-78
2024/04/11 12:54:16;;;;;;;4.80;3.53;;;;;;;;;;10512457;28;20016;-79
2024/04/11 12:59:28;;;;;;;4.28;3.10;;;;;;;;;;10489271;28;20078;-79
2024/04/11 13:04:32;;;;;;;5.50;4.05;;;;;;;;;;10489680;28;20028;-79
2024/04/11 13:09:35;;;;;;;4.25;2.40;;;;;;;;;;10514830;28;20027;-77
2024/04/11 13:14:50;;;;;;;3.83;2.92;;;;;;;;;;10505908;28;20030;-77
2024/04/11 13:19:56;;;;;;;8.98;4.32;;;;;;;;;;10522254;28;20020;-78
2024/04/11 13:25:00;;;;;;;5.55;3.63;;;;;;;;;;10498640;28;20087;-78
2024/04/11 13:30:11;;;;;;;9.18;5.55;;;;;;;;;;10494764;28;20082;-78
2024/04/11 13:35:14;;;;;;;6.18;3.65;;;;;;;;;;10520343;28;20050;-78
2024/04/11 13:45:28;;;;;;;6.75;4.10;;;;;;;;;;10512637;28;20066;-78
2024/04/11 13:50:52;;;;;;;7.50;4.13;;;;;;;;;;10513174;28;20078;-79
2024/04/11 13:55:55;;;;;;;6.03;3.65;;;;;;;;;;10538449;22;20408;-80
2024/04/11 14:01:05;;;;;;;4.03;2.53;;;;;;;;;;10498424;28;20031;-82
2024/04/11 14:06:26;;;;;;;7.82;4.05;;;;;;;;;;10530837;28;20020;-82
2024/04/11 14:11:29;;;;;;;5.40;2.92;;;;;;;;;;10562826;28;20040;-82
2024/04/11 14:16:51;;;;;;;4.03;1.90;;;;;;;;;;10545051;28;20490;-82
2024/04/11 14:22:08;;;;;;;5.25;2.75;;;;;;;;;;10544637;28;20034;-81
2024/04/11 14:27:11;;;;;;;4.85;2.85;;;;;;;;;;10544317;28;20028;-82
2024/04/11 14:32:23;;;;;;;3.50;2.15;;;;;;;;;;10542955;28;20396;-82
2024/04/11 14:42:33;;;;;;;5.90;3.25;;;;;;;;;;10561681;28;20084;-83
2024/04/11 14:47:50;;;;;;;7.63;4.25;;;;;;;;;;10561359;28;20362;-83
2024/04/11 14:52:53;;;;;;;7.00;3.60;;;;;;;;;;10543144;28;20035;-82
2024/04/11 14:57:58;;;;;;;4.95;3.20;;;;;;;;;;10544751;28;20024;-84
2024/04/11 15:03:41;;;;;;;7.43;4.63;;;;;;;;;;10566240;28;20016;-84
2024/04/11 15:08:47;;;;;;;7.60;4.45;;;;;;;;;;10563427;28;20516;-85
2024/04/11 15:14:13;;;;;;;4.35;2.60;;;;;;;;;;10545179;28;20028;-85
2024/04/11 15:19:20;;;;;;;3.90;2.40;;;;;;;;;;10542809;28;20485;-84
2024/04/11 15:24:26;;;;;;;6.40;4.10;;;;;;;;;;10563389;28;20040;-83
2024/04/11 15:29:57;;;;;;;9.15;4.40;;;;;;;;;;10543426;28;20031;-84
2024/04/11 15:35:07;;;;;;;10.10;6.30;;;;;;;;;;10560202;28;20028;-83
2024/04/11 15:40:22;;;;;;;8.20;4.60;;;;;;;;;;10540451;28;20025;-83
2024/04/11 15:45:34;;;;;;;7.63;6.55;;;;;;;;;;10553095;28;20421;-83
2024/04/11 15:50:41;;;;;;;8.57;4.80;;;;;;;;;;10554055;28;20031;-82
2024/04/11 15:56:02;;;;;;;10.48;8.27;;;;;;;;;;10534560;28;20028;-82
2024/04/11 16:01:30;;;;;;;6.10;4.15;;;;;;;;;;10551369;28;20105;-84
2024/04/11 16:12:18;;;;;;;6.95;5.28;;;;;;;;;;10561732;28;20028;-85
2024/04/11 16:23:18;;;;;;;5.82;3.83;;;;;;;;;;10576320;28;20032;-82
2024/04/11 16:29:19;;;;;;;7.15;4.75;;;;;;;;;;10548383;28;20055;-81
2024/04/11 16:34:43;;;;;;;6.72;3.47;;;;;;;;;;10563600;28;20062;-81
2024/04/11 16:45:46;;;;;;;6.65;4.63;;;;;;;;;;10419598;28;20060;-83
2024/04/11 17:02:28;;;;;;;6.13;4.35;;;;;;;;;;10418855;28;20037;-86
2024/04/11 17:07:38;;;;;;;6.03;3.97;;;;;;;;;;10454580;28;20044;-83
2024/04/11 17:12:59;;;;;;;5.00;3.58;;;;;;;;;;10537332;28;20031;-83
2024/04/11 17:29:46;;;;;;;7.38;3.97;;;;;;;;;;10552635;28;20040;-82
2024/04/11 17:40:42;;;;;;;5.82;3.30;;;;;;;;;;10505245;28;20083;-82
2024/04/11 17:52:23;;;;;;;5.07;2.67;;;;;;;;;;10505135;28;20033;-82
2024/04/11 18:03:02;;;;;;;;;;;;;;;;;;10509195;28;20146;-83
2024/04/11 18:08:08;;;;;;;4.32;2.70;;;;;;;;;;10530299;28;20018;-83
2024/04/11 18:13:33;;;;;;;5.13;2.88;;;;;;;;;;10548101;28;20028;-86
2024/04/11 18:18:39;;;;;;;5.18;3.22;;;;;;;;;;10525659;28;20024;-86
2024/04/11 18:24:32;;;;;;;6.45;4.25;;;;;;;;;;10497337;28;20090;-86
2024/04/11 18:29:41;;;;;;;5.43;3.35;;;;;;;;;;10504648;28;20005;-86
